WetterOnline ( https://www.wetteronline.de )

Wetter aktuell Leitmeritz

Aktuelles Wetter: Prag - Ruzyne (365m)

6-stündlich | Neueste Meldungen
Ortszeit Temperatur Wetter
Mo, 18.11. 1:00 10.7° C leicht bewölkt
So, 17.11. 19:00 12.2° C wolkig
So, 17.11. 13:00 12.4° C leicht bewölkt
So, 17.11. 7:00 6.1° C bedeckt
So, 17.11. 1:00 3.5° C wolkig
Sa, 16.11. 19:00 4.6° C leicht bewölkt
Sa, 16.11. 13:00 10.8° C leicht bewölkt
Sa, 16.11. 7:00 7.8° C fast wolkenlos
Ortszeit Temperatur Wetter
Mo, 18.11. 4:00 9.8° C bewölkt
Mo, 18.11. 3:30 10° C bewölkt
Mo, 18.11. 3:00 10.1° C wolkig
Mo, 18.11. 2:30 10° C -
Mo, 18.11. 2:00 10.2° C leicht bewölkt
Mo, 18.11. 1:30 10° C -
Mo, 18.11. 1:00 10.7° C leicht bewölkt
Mo, 18.11. 0:30 11° C -
Ortszeit Relative Feuchte Sichtweite
Mo, 18.11. 1:00 82% 30 km
So, 17.11. 19:00 75% 25 km
So, 17.11. 13:00 77% 25 km
So, 17.11. 7:00 97% 2.0 km
So, 17.11. 1:00 91% 16 km
Sa, 16.11. 19:00 86% 45 km
Sa, 16.11. 13:00 71% 25 km
Sa, 16.11. 7:00 87% 9 km
Ortszeit Relative Feuchte Sichtweite
Mo, 18.11. 4:00 85% 25 km
Mo, 18.11. 3:30 82% >10 km
Mo, 18.11. 3:00 83% 25 km
Mo, 18.11. 2:30 87% >10 km
Mo, 18.11. 2:00 85% 25 km
Mo, 18.11. 1:30 87% >10 km
Mo, 18.11. 1:00 82% 30 km
Mo, 18.11. 0:30 82% >10 km
Ortszeit Niederschlagsmenge Niederschlagsart
Mo, 18.11. 1:00 0.0 l/m2 in 6 Std. -
So, 17.11. 19:00 0.0 l/m2 in 12 Std. -
So, 17.11. 13:00 0.0 l/m2 in 6 Std. Nebel
So, 17.11. 7:00 0.3 l/m2 in 12 Std. Regen
So, 17.11. 1:00 0.0 l/m2 in 6 Std. -
Sa, 16.11. 19:00 0.0 l/m2 in 12 Std. -
Sa, 16.11. 13:00 0.0 l/m2 in 6 Std. -
Sa, 16.11. 7:00 0.0 l/m2 in 12 Std. -
Ortszeit Niederschlagsmenge Niederschlagsart
Mo, 18.11. 4:00 0.0 l/m2 in 1 Std. -
Mo, 18.11. 3:30 keine Meldung -
Mo, 18.11. 3:00 0.0 l/m2 in 1 Std. -
Mo, 18.11. 2:30 keine Meldung -
Mo, 18.11. 2:00 0.0 l/m2 in 1 Std. -
Mo, 18.11. 1:30 keine Meldung -
Mo, 18.11. 1:00 0.0 l/m2 in 1 Std. -
Mo, 18.11. 0:30 keine Meldung -
Ortszeit Stärke Spitze Richtung
km/h Bft. km/h Grad Sektor
Mo, 18.11. 1:00 14 3 40 130° SO
So, 17.11. 19:00 22 4 - 130° SO
So, 17.11. 13:00 25 4 - 110° O
So, 17.11. 7:00 14 3 - 70° O
So, 17.11. 1:00 7 2 - 360° N
Sa, 16.11. 19:00 11 2 - 260° W
Sa, 16.11. 13:00 11 2 - 240° SW
Sa, 16.11. 7:00 14 3 - 200° S
Ortszeit Stärke Spitze Richtung
km/h Bft. km/h Grad Sektor
Mo, 18.11. 4:00 4 1 - 230° SW
Mo, 18.11. 3:30 7 2 - 150° SO
Mo, 18.11. 3:00 11 2 - 140° SO
Mo, 18.11. 2:30 17 3 - 140° SO
Mo, 18.11. 2:00 22 4 - 130° SO
Mo, 18.11. 1:30 15 3 - 130° SO
Mo, 18.11. 1:00 14 3 40 130° SO
Mo, 18.11. 0:30 19 3 - 130° SO
Ortszeit Untergrenze Bedeckung Gattung
total tief tief mittel hoch
Mo, 18.11. 1:00 4800 m 6/8 4/8 - As Ci
So, 17.11. 19:00 780 m 7/8 2/8 Sc As Ci
So, 17.11. 13:00 4500 m 7/8 3/8 - Ac Ci
So, 17.11. 7:00 60 m 8/8 8/8 St - -
So, 17.11. 1:00 540 m 8/8 1/8 Sc Ns -
Sa, 16.11. 19:00 6900 m 7/8 7/8 - - Ci
Sa, 16.11. 13:00 600 m 3/8 1/8 Cu Ac Cs
Sa, 16.11. 7:00 540 m 2/8 1/8 Sc - Ci
Ortszeit Bedeckungsgrad in Achtel und Wolkenuntergrenze
Mo, 18.11. 4:00 7(630m)
Mo, 18.11. 3:30 5-7(690m)
Mo, 18.11. 3:00 2(750m) 6(6900m)
Mo, 18.11. 2:30 keine Wolken(unter 1500 m)
Mo, 18.11. 2:00 2(4800m) 6(6300m)
Mo, 18.11. 1:30 keine Wolken(unter 1500 m)
Mo, 18.11. 1:00 4(4800m) 4(6900m)
Mo, 18.11. 0:30 keine Wolken(unter 1500 m)
Ortszeit Luftdruck NN (hPa) Tendenz (hPa in 3 Std.)
Mo, 18.11. 1:00 1004 - 0,7
So, 17.11. 19:00 1006 - 0,1
So, 17.11. 13:00 1007 - 2,1
So, 17.11. 7:00 1012 - 2,0
So, 17.11. 1:00 1015 - 0,5
Sa, 16.11. 19:00 1015 + 2,3
Sa, 16.11. 13:00 1009 + 1,2
Sa, 16.11. 7:00 1005 + 1,7
Ortszeit Luftdruck NN (hPa) Tendenz (hPa in 3 Std.)
Mo, 18.11. 4:00 1004 + 0,3
Mo, 18.11. 3:30 1003 keine Meldung
Mo, 18.11. 3:00 1004 - 0,6
Mo, 18.11. 2:30 1003 keine Meldung
Mo, 18.11. 2:00 1004 - 0,9
Mo, 18.11. 1:30 1003 keine Meldung
Mo, 18.11. 1:00 1004 - 0,7
Mo, 18.11. 0:30 1003 keine Meldung
Ortszeit Schneehöhe (cm)
Mo, 18.11. 1:00 -
So, 17.11. 19:00 -
So, 17.11. 13:00 -
So, 17.11. 7:00 -
So, 17.11. 1:00 -
Sa, 16.11. 19:00 0
Sa, 16.11. 13:00 -
Sa, 16.11. 7:00 -
Ortszeit Schneehöhe (cm)
Mo, 18.11. 4:00 -
Mo, 18.11. 3:30 -
Mo, 18.11. 3:00 -
Mo, 18.11. 2:30 -
Mo, 18.11. 2:00 -
Mo, 18.11. 1:30 -
Mo, 18.11. 1:00 -
Mo, 18.11. 0:30 -
Link zu dieser Seite / Seite empfehlen

Das Wetter in ...